Time;durP1;ratioP1;P1;durP2;ratioP2;P2;SDS_P1;SDS_P2;PMS_P1;PMS_P2;Temp;Humidity;BMP_temperature;BMP_pressure;BME280_temperature;BME280_humidity;BME280_pressure;Samples;Min_cycle;Max_cycle;Signal;HPM_P1;HPM_P2
2023/10/04 00:01:42;;;;;;;34.58;14.07;;;9.60;99.90;;;;;;4997752;28;20045;-84
2023/10/04 00:04:08;;;;;;;29.05;13.73;;;9.50;99.90;;;;;;4998127;28;20029;-84
2023/10/04 00:06:34;;;;;;;32.58;13.40;;;9.40;99.90;;;;;;5014512;28;20100;-84
2023/10/04 00:09:00;;;;;;;25.67;13.45;;;9.40;99.90;;;;;;4998074;28;20030;-84
2023/10/04 00:11:26;;;;;;;28.38;14.32;;;9.50;99.90;;;;;;4997895;28;20059;-84
2023/10/04 00:13:52;;;;;;;30.40;13.80;;;9.60;99.90;;;;;;4997820;28;20022;-84
2023/10/04 00:16:18;;;;;;;29.92;13.80;;;9.50;99.90;;;;;;4998038;28;20034;-84
2023/10/04 00:18:44;;;;;;;30.63;13.57;;;9.50;99.90;;;;;;5014280;28;20033;-85
2023/10/04 00:21:10;;;;;;;28.05;14.50;;;9.50;99.90;;;;;;4997916;28;20049;-84
2023/10/04 00:23:39;;;;;;;31.80;14.90;;;9.50;99.90;;;;;;4998168;28;20477;-84
2023/10/04 00:26:08;;;;;;;40.75;15.02;;;9.40;99.90;;;;;;4998405;28;20026;-84
2023/10/04 00:28:34;;;;;;;27.75;14.13;;;9.40;99.90;;;;;;4997813;28;20143;-84
2023/10/04 00:31:00;;;;;;;29.48;13.52;;;9.30;99.90;;;;;;4996885;28;20393;-83
2023/10/04 00:33:26;;;;;;;35.13;13.05;;;9.30;99.90;;;;;;4996638;28;20042;-84
2023/10/04 00:35:52;;;;;;;27.67;12.40;;;9.30;99.90;;;;;;4997274;28;20032;-84
2023/10/04 00:38:19;;;;;;;30.38;13.32;;;9.30;99.90;;;;;;4997350;28;20026;-85
2023/10/04 00:40:47;;;;;;;28.75;13.13;;;9.20;99.90;;;;;;5014009;28;20026;-84
2023/10/04 00:43:15;;;;;;;35.05;11.95;;;9.20;99.90;;;;;;4997770;28;20120;-84
2023/10/04 00:45:47;;;;;;;34.53;13.75;;;9.30;99.90;;;;;;5013759;28;20040;-84
2023/10/04 00:48:17;;;;;;;30.90;13.63;;;9.10;99.90;;;;;;4997573;28;20034;-84
2023/10/04 00:50:44;;;;;;;32.05;13.18;;;9.10;99.90;;;;;;4996328;28;20125;-85
2023/10/04 00:53:14;;;;;;;28.70;12.10;;;9.10;99.90;;;;;;4997389;28;20030;-84
2023/10/04 00:55:44;;;;;;;27.08;12.82;;;9.20;99.90;;;;;;4997219;28;20453;-84
2023/10/04 00:58:12;;;;;;;29.08;12.93;;;9.20;99.90;;;;;;4997467;28;20085;-84
2023/10/04 01:00:39;;;;;;;25.10;12.27;;;9.10;99.90;;;;;;4997184;28;20121;-84
2023/10/04 01:03:07;;;;;;;28.98;12.80;;;9.10;99.90;;;;;;4997251;28;20034;-84
2023/10/04 01:05:38;;;;;;;31.63;13.77;;;9.10;99.90;;;;;;4997166;28;20030;-84
2023/10/04 01:08:04;;;;;;;32.90;14.10;;;9.10;99.90;;;;;;4997587;28;20045;-85
2023/10/04 01:10:32;;;;;;;23.58;13.30;;;9.00;99.90;;;;;;4997300;28;20058;-84
2023/10/04 01:13:00;;;;;;;34.88;13.63;;;9.00;99.90;;;;;;4997625;28;20084;-84
2023/10/04 01:15:39;;;;;;;31.27;12.52;;;8.90;99.90;;;;;;5013739;28;20036;-84
2023/10/04 01:18:10;;;;;;;31.77;12.32;;;8.80;99.90;;;;;;4997258;28;20080;-84
2023/10/04 01:20:38;;;;;;;33.58;13.02;;;8.70;99.90;;;;;;4997065;28;20060;-84
2023/10/04 01:23:06;;;;;;;34.65;11.70;;;8.50;99.90;;;;;;4997041;28;20041;-84
2023/10/04 01:25:36;;;;;;;32.95;12.68;;;8.50;99.90;;;;;;5005098;28;20037;-84
2023/10/04 01:28:13;;;;;;;31.63;13.10;;;8.50;99.90;;;;;;4997342;28;20033;-84
2023/10/04 01:30:44;;;;;;;27.25;13.20;;;8.50;99.90;;;;;;4996893;28;20481;-84
2023/10/04 01:33:15;;;;;;;34.58;12.02;;;8.50;99.90;;;;;;5013122;28;20124;-84
2023/10/04 01:35:51;;;;;;;25.15;10.52;;;8.50;99.90;;;;;;4996763;28;20064;-85
2023/10/04 01:38:17;;;;;;;23.65;10.30;;;8.60;99.90;;;;;;4996803;28;20077;-84
2023/10/04 01:40:47;;;;;;;24.52;11.25;;;8.60;99.90;;;;;;4996287;28;20409;-84
2023/10/04 01:43:16;;;;;;;32.03;11.13;;;8.60;99.90;;;;;;5012436;28;20401;-84
2023/10/04 01:45:53;;;;;;;29.40;12.13;;;8.80;99.90;;;;;;4996283;28;20034;-84
2023/10/04 01:48:19;;;;;;;34.33;12.20;;;8.80;99.90;;;;;;4996454;28;20041;-85
2023/10/04 01:50:51;;;;;;;27.35;11.68;;;8.70;99.90;;;;;;4996127;28;20441;-84
2023/10/04 01:53:19;;;;;;;;;;;8.60;99.90;;;;;;4996249;28;20042;-84
2023/10/04 01:55:45;;;;;;;35.40;11.93;;;8.60;99.90;;;;;;4995780;28;20306;-84
2023/10/04 01:58:12;;;;;;;26.75;11.85;;;8.60;99.90;;;;;;4996079;28;20033;-85
2023/10/04 02:00:38;;;;;;;26.90;11.85;;;8.60;99.90;;;;;;4995845;28;20080;-84
2023/10/04 02:03:05;;;;;;;23.85;11.48;;;8.60;99.90;;;;;;4996113;28;20033;-85
2023/10/04 02:05:37;;;;;;;33.40;13.30;;;8.50;99.90;;;;;;4996061;28;20065;-85
2023/10/04 02:08:07;;;;;;;31.42;12.63;;;8.50;99.90;;;;;;4995772;28;20053;-84
2023/10/04 02:10:33;;;;;;;32.03;13.10;;;8.50;99.90;;;;;;4995516;28;20048;-84
2023/10/04 02:12:59;;;;;;;30.33;14.55;;;8.40;99.90;;;;;;5012553;28;20113;-84
2023/10/04 02:15:25;;;;;;;30.27;13.95;;;8.50;99.90;;;;;;5011618;28;20137;-85
2023/10/04 02:17:51;;;;;;;35.03;13.88;;;8.50;99.90;;;;;;4995223;28;20619;-84
2023/10/04 02:20:23;;;;;;;33.35;14.55;;;8.60;99.90;;;;;;4995476;28;20026;-84
2023/10/04 02:22:50;;;;;;;33.47;15.55;;;8.50;99.90;;;;;;4995565;28;20714;-84
2023/10/04 02:25:17;;;;;;;33.35;15.18;;;8.50;99.90;;;;;;4995760;28;20034;-84
2023/10/04 02:27:49;;;;;;;34.10;15.10;;;8.50;99.90;;;;;;4995650;28;20045;-84
2023/10/04 02:30:26;;;;;;;28.50;13.00;;;8.50;99.90;;;;;;4995699;28;20034;-84
2023/10/04 02:32:57;;;;;;;36.42;14.82;;;8.50;99.90;;;;;;4995323;28;20149;-84
2023/10/04 02:37:54;;;;;;;46.53;17.10;;;8.30;99.90;;;;;;4995416;28;20096;-84
2023/10/04 02:40:22;;;;;;;48.00;16.15;;;8.30;99.90;;;;;;4995263;28;20026;-84
2023/10/04 02:42:48;;;;;;;40.70;15.68;;;8.20;99.90;;;;;;5011631;28;20125;-84
2023/10/04 02:45:21;;;;;;;29.98;15.35;;;8.20;99.90;;;;;;4995475;28;20096;-84
2023/10/04 02:47:48;;;;;;;45.47;16.90;;;8.30;99.90;;;;;;4995318;28;20034;-84
2023/10/04 02:50:19;;;;;;;38.67;16.17;;;8.30;99.90;;;;;;4995107;28;20037;-84
2023/10/04 02:52:50;;;;;;;35.33;14.38;;;8.30;99.90;;;;;;4994958;28;20041;-84
2023/10/04 02:55:20;;;;;;;40.28;14.15;;;8.30;99.90;;;;;;4995484;28;20032;-84
2023/10/04 02:57:50;;;;;;;32.78;14.88;;;8.30;99.90;;;;;;4995165;28;20128;-84
2023/10/04 03:00:19;;;;;;;32.10;12.80;;;8.20;99.90;;;;;;4994896;28;20060;-84
2023/10/04 03:02:49;;;;;;;29.10;12.95;;;8.20;99.90;;;;;;4994786;28;20087;-84
2023/10/04 03:05:18;;;;;;;32.40;12.45;;;8.20;99.90;;;;;;5011425;28;20034;-84
2023/10/04 03:08:27;;;;;;;30.77;12.27;;;8.20;99.90;;;;;;4995413;28;20037;-84
2023/10/04 03:10:55;;;;;;;41.30;13.48;;;8.10;99.90;;;;;;4994443;28;20083;-84
2023/10/04 03:13:23;;;;;;;30.80;12.38;;;8.10;99.90;;;;;;4994357;28;20351;-84
2023/10/04 03:15:54;;;;;;;33.75;12.57;;;8.00;99.90;;;;;;4994926;28;20084;-84
2023/10/04 03:18:21;;;;;;;34.20;12.07;;;8.00;99.90;;;;;;4995128;28;20037;-84
2023/10/04 03:21:08;;;;;;;37.10;13.85;;;7.80;99.90;;;;;;4995068;28;20022;-84
2023/10/04 03:23:40;;;;;;;35.80;12.43;;;7.70;99.90;;;;;;4995278;28;20539;-85
2023/10/04 03:26:12;;;;;;;39.78;13.68;;;7.60;99.90;;;;;;4995160;28;20049;-84
2023/10/04 03:28:39;;;;;;;41.05;13.88;;;7.40;99.90;;;;;;4995166;28;20064;-84
2023/10/04 03:31:14;;;;;;;40.25;14.02;;;7.30;99.90;;;;;;4994977;28;20030;-84
2023/10/04 03:33:45;;;;;;;35.20;13.07;;;7.20;99.90;;;;;;4994602;28;20041;-84
2023/10/04 03:36:18;;;;;;;27.23;12.77;;;7.20;99.90;;;;;;4994654;28;20030;-84
2023/10/04 03:38:45;;;;;;;32.45;13.27;;;7.20;99.90;;;;;;4994844;28;20775;-84
2023/10/04 03:41:12;;;;;;;37.85;14.23;;;7.20;99.90;;;;;;4994930;28;20029;-84
2023/10/04 03:43:40;;;;;;;41.05;16.33;;;7.30;99.90;;;;;;5011109;28;20030;-84
2023/10/04 03:46:18;;;;;;;39.13;14.48;;;7.20;99.90;;;;;;4995004;28;20354;-84
2023/10/04 03:48:47;;;;;;;34.22;14.80;;;7.20;99.90;;;;;;4995164;28;20081;-84
2023/10/04 03:51:15;;;;;;;45.70;15.43;;;7.30;99.90;;;;;;4995028;28;20029;-84
2023/10/04 03:53:43;;;;;;;35.75;14.52;;;7.30;99.90;;;;;;4994667;28;20029;-84
2023/10/04 03:56:10;;;;;;;32.67;13.90;;;7.30;99.90;;;;;;4994502;28;20165;-84
2023/10/04 03:58:37;;;;;;;40.05;14.30;;;7.30;99.90;;;;;;4994932;28;20056;-84
2023/10/04 04:01:03;;;;;;;34.75;14.65;;;7.40;99.90;;;;;;4994175;28;20030;-84
2023/10/04 04:03:32;;;;;;;43.63;16.05;;;7.40;99.90;;;;;;4994205;28;20392;-84
2023/10/04 04:05:58;;;;;;;39.17;15.65;;;7.40;99.90;;;;;;5011426;28;20177;-84
2023/10/04 04:08:25;;;;;;;38.40;16.35;;;7.40;99.90;;;;;;4994992;28;20543;-84
2023/10/04 04:10:51;;;;;;;43.28;16.13;;;7.30;99.90;;;;;;4995046;28;20032;-84
2023/10/04 04:13:18;;;;;;;38.55;16.17;;;7.20;99.90;;;;;;5011627;28;20037;-84
2023/10/04 04:15:44;;;;;;;42.42;16.05;;;7.10;99.90;;;;;;5011063;28;20540;-84
2023/10/04 04:18:15;;;;;;;44.65;15.43;;;7.00;99.90;;;;;;4994530;28;20116;-84
2023/10/04 04:20:41;;;;;;;33.22;12.82;;;6.90;99.90;;;;;;4994438;28;20398;-84
2023/10/04 04:23:10;;;;;;;31.67;14.85;;;6.80;99.90;;;;;;5002161;28;20029;-83
2023/10/04 04:25:38;;;;;;;33.35;14.80;;;6.80;99.90;;;;;;4998855;28;20030;-84
2023/10/04 04:28:07;;;;;;;42.15;15.15;;;6.80;99.90;;;;;;4998320;28;20485;-84
2023/10/04 04:30:35;;;;;;;51.80;16.55;;;6.70;99.90;;;;;;4998287;28;20029;-84
2023/10/04 04:33:06;;;;;;;41.70;18.25;;;6.70;99.90;;;;;;4997651;28;20033;-84
2023/10/04 04:38:16;;;;;;;50.47;19.55;;;6.50;99.90;;;;;;4997559;28;20390;-84
2023/10/04 04:40:46;;;;;;;54.67;23.75;;;6.50;99.90;;;;;;4997498;28;20599;-84
2023/10/04 04:45:53;;;;;;;63.03;23.65;;;6.80;99.90;;;;;;4997265;28;20052;-84
2023/10/04 04:48:27;;;;;;;50.67;20.75;;;6.80;99.90;;;;;;4998142;28;20247;-84
2023/10/04 04:51:02;;;;;;;50.63;20.00;;;6.90;99.90;;;;;;5013641;28;20049;-84
2023/10/04 04:53:28;;;;;;;75.38;21.17;;;6.90;99.90;;;;;;4981326;28;20072;-84
2023/10/04 04:55:55;;;;;;;103.82;27.17;;;7.00;99.90;;;;;;4997208;28;20030;-84
2023/10/04 04:58:22;;;;;;;91.05;26.63;;;7.00;99.90;;;;;;4997340;28;20034;-84
2023/10/04 05:01:03;;;;;;;88.97;27.55;;;7.00;99.90;;;;;;4997241;28;20945;-84
2023/10/04 05:03:33;;;;;;;122.15;30.85;;;7.10;99.90;;;;;;4997788;28;20164;-84
2023/10/04 05:05:59;;;;;;;100.40;30.75;;;7.20;99.90;;;;;;4997290;28;20719;-84
2023/10/04 05:08:25;;;;;;;142.77;35.67;;;7.30;99.90;;;;;;4997296;28;20137;-84
2023/10/04 05:10:52;;;;;;;169.82;39.13;;;7.40;99.90;;;;;;5014829;28;20033;-84
2023/10/04 05:13:18;;;;;;;97.63;33.30;;;7.50;99.90;;;;;;4997147;28;20044;-84
2023/10/04 05:15:49;;;;;;;97.05;31.00;;;7.70;99.90;;;;;;5013564;28;20038;-84
2023/10/04 05:18:15;;;;;;;130.88;35.38;;;7.80;99.90;;;;;;4997339;28;20477;-84
2023/10/04 05:20:57;;;;;;;128.80;36.17;;;8.00;99.90;;;;;;4997251;28;20033;-84
2023/10/04 05:23:24;;;;;;;180.10;38.75;;;8.10;99.90;;;;;;4997425;28;20065;-84
2023/10/04 05:25:51;;;;;;;183.07;41.25;;;8.20;99.90;;;;;;4996762;28;20038;-84
2023/10/04 05:28:18;;;;;;;173.55;46.00;;;8.30;99.90;;;;;;4996589;28;20033;-84
2023/10/04 05:30:45;;;;;;;254.13;44.35;;;8.40;99.90;;;;;;4996635;28;20053;-85
2023/10/04 05:33:18;;;;;;;114.75;35.10;;;8.50;99.90;;;;;;4996385;28;20030;-85
2023/10/04 05:35:45;;;;;;;285.90;43.05;;;8.50;99.90;;;;;;5013419;28;20113;-85
2023/10/04 05:38:16;;;;;;;144.52;36.70;;;8.60;99.90;;;;;;4996476;28;20026;-85
2023/10/04 05:40:44;;;;;;;150.73;38.17;;;8.70;99.90;;;;;;4996824;28;20026;-85
2023/10/04 05:43:14;;;;;;;118.78;35.47;;;8.80;99.90;;;;;;4996265;28;20030;-85
2023/10/04 05:45:42;;;;;;;119.50;35.65;;;8.90;99.90;;;;;;5012977;28;20033;-85
2023/10/04 05:48:12;;;;;;;135.52;36.55;;;8.90;99.90;;;;;;4996608;28;20104;-85
2023/10/04 05:50:39;;;;;;;192.07;40.15;;;8.90;99.90;;;;;;5012328;28;20037;-85
2023/10/04 05:53:06;;;;;;;139.60;36.65;;;9.00;99.90;;;;;;4996083;28;20049;-85
2023/10/04 05:55:34;;;;;;;123.63;36.38;;;9.00;99.90;;;;;;4996596;28;20421;-85
2023/10/04 05:58:00;;;;;;;402.17;46.50;;;9.00;99.90;;;;;;4996662;28;20022;-85
2023/10/04 06:00:37;;;;;;;117.88;34.58;;;9.00;99.90;;;;;;4996106;28;20041;-85
2023/10/04 06:03:11;;;;;;;176.85;39.75;;;9.00;99.90;;;;;;4996309;28;20444;-85
2023/10/04 06:05:38;;;;;;;144.80;33.55;;;9.10;99.90;;;;;;4996446;28;20624;-85
2023/10/04 06:08:12;;;;;;;113.38;32.60;;;9.10;99.90;;;;;;4996103;28;20076;-85
2023/10/04 06:10:38;;;;;;;158.95;34.40;;;9.00;99.90;;;;;;4996111;28;20057;-85
2023/10/04 06:13:13;;;;;;;107.00;30.80;;;9.00;99.90;;;;;;4995603;28;20116;-85
2023/10/04 06:15:44;;;;;;;127.18;33.30;;;8.90;99.90;;;;;;4994814;28;20040;-85
2023/10/04 06:18:13;;;;;;;73.40;24.98;;;8.80;99.90;;;;;;5012865;28;20026;-85
2023/10/04 06:20:40;;;;;;;99.25;30.48;;;8.80;99.90;;;;;;4996028;28;20073;-85
2023/10/04 06:23:11;;;;;;;102.22;29.85;;;8.70;99.90;;;;;;4995851;28;20768;-85
2023/10/04 06:25:52;;;;;;;96.33;28.67;;;8.70;99.90;;;;;;4995914;28;20490;-85
2023/10/04 06:28:19;;;;;;;72.68;26.48;;;8.80;99.90;;;;;;4995928;28;20776;-85
2023/10/04 06:30:48;;;;;;;74.32;26.17;;;8.80;99.90;;;;;;4995908;28;20073;-85
2023/10/04 06:33:15;;;;;;;82.45;30.70;;;8.80;99.90;;;;;;4995817;28;20128;-85
2023/10/04 06:35:44;;;;;;;86.32;30.13;;;8.80;99.90;;;;;;5011990;28;20065;-85
2023/10/04 06:38:10;;;;;;;89.13;28.92;;;8.80;99.90;;;;;;4995906;28;20040;-85
2023/10/04 06:40:38;;;;;;;81.75;31.60;;;8.80;99.90;;;;;;5012097;28;20486;-85
2023/10/04 06:43:06;;;;;;;84.25;30.02;;;8.80;99.90;;;;;;4995605;28;20029;-85
2023/10/04 06:45:34;;;;;;;76.90;26.35;;;8.70;99.90;;;;;;4994660;28;20493;-85
2023/10/04 06:48:01;;;;;;;89.68;27.58;;;8.60;99.90;;;;;;4994272;28;20617;-85
2023/10/04 06:50:28;;;;;;;80.70;27.15;;;8.60;99.90;;;;;;5013036;28;20441;-85
2023/10/04 06:52:56;;;;;;;75.32;27.67;;;8.60;99.90;;;;;;4995095;28;20544;-85
2023/10/04 06:55:22;;;;;;;69.82;26.88;;;8.60;99.90;;;;;;4995470;28;20030;-85
2023/10/04 06:57:49;;;;;;;74.15;28.45;;;8.50;99.90;;;;;;4994961;28;20052;-85
2023/10/04 07:00:26;;;;;;;77.40;30.33;;;8.50;99.90;;;;;;4994926;28;20470;-85
2023/10/04 07:02:59;;;;;;;73.78;29.30;;;8.60;99.90;;;;;;4995367;28;20665;-85
2023/10/04 07:05:35;;;;;;;64.28;22.95;;;8.60;99.90;;;;;;4995435;28;20037;-85
2023/10/04 07:08:01;;;;;;;69.53;23.85;;;8.70;99.90;;;;;;4995582;28;20034;-86
2023/10/04 07:10:28;;;;;;;75.40;25.90;;;8.80;99.90;;;;;;4995647;28;20378;-85
2023/10/04 07:12:57;;;;;;;61.00;25.15;;;8.80;99.90;;;;;;4995687;28;20486;-85
2023/10/04 07:15:24;;;;;;;64.38;25.58;;;8.80;99.90;;;;;;4995024;28;20456;-85
2023/10/04 07:17:51;;;;;;;71.82;25.98;;;8.90;99.90;;;;;;4995019;28;20062;-85
2023/10/04 07:20:18;;;;;;;75.65;26.58;;;8.90;99.90;;;;;;4978624;28;20576;-85
2023/10/04 07:23:08;;;;;;;70.03;25.73;;;8.90;99.90;;;;;;5011457;28;20044;-85
2023/10/04 07:25:36;;;;;;;66.20;25.08;;;9.00;99.90;;;;;;4994879;28;20030;-85
2023/10/04 07:28:03;;;;;;;62.58;25.45;;;9.10;99.90;;;;;;5011716;28;20045;-85
2023/10/04 07:30:30;;;;;;;59.88;25.05;;;9.10;99.90;;;;;;4995778;28;20037;-85
2023/10/04 07:32:59;;;;;;;64.93;25.42;;;9.10;99.90;;;;;;4994751;28;20033;-84
2023/10/04 07:35:26;;;;;;;62.28;24.08;;;9.20;99.90;;;;;;4995310;28;20048;-85
2023/10/04 07:37:53;;;;;;;71.18;24.20;;;9.20;99.90;;;;;;4994756;28;20736;-85
2023/10/04 07:40:21;;;;;;;62.95;22.77;;;9.20;99.90;;;;;;4994273;28;20028;-85
2023/10/04 07:42:47;;;;;;;51.83;20.77;;;9.30;99.90;;;;;;4994427;28;20041;-85
2023/10/04 07:45:14;;;;;;;57.75;19.70;;;9.30;99.90;;;;;;4995025;28;20030;-85
2023/10/04 07:47:41;;;;;;;53.63;20.65;;;9.30;99.90;;;;;;4994476;28;20481;-85
2023/10/04 07:50:10;;;;;;;49.97;18.50;;;9.40;99.90;;;;;;4994295;28;20100;-85
2023/10/04 07:52:37;;;;;;;43.92;16.85;;;9.40;99.90;;;;;;5011039;28;20088;-85
2023/10/04 07:55:12;;;;;;;53.85;18.08;;;9.50;99.90;;;;;;5012799;28;20066;-85
2023/10/04 07:57:42;;;;;;;50.22;18.35;;;9.60;99.90;;;;;;4994541;28;20034;-85
2023/10/04 08:00:13;;;;;;;42.13;18.35;;;9.70;99.90;;;;;;4996958;28;20117;-85
2023/10/04 08:02:45;;;;;;;;;;;9.80;99.90;;;;;;4998929;28;20037;-85
2023/10/04 08:05:17;;;;;;;42.13;18.00;;;9.90;99.90;;;;;;4998302;28;19917;-85
2023/10/04 08:07:42;;;;;;;48.10;17.27;;;9.90;99.90;;;;;;4998341;28;20073;-85
2023/10/04 08:10:09;;;;;;;45.17;16.98;;;10.00;99.90;;;;;;4998844;28;20080;-85
2023/10/04 08:12:34;;;;;;;46.97;16.35;;;10.00;99.90;;;;;;4998576;28;20029;-86
2023/10/04 08:15:02;;;;;;;47.28;15.75;;;10.10;99.90;;;;;;4998351;28;20441;-85
2023/10/04 08:17:28;;;;;;;37.00;15.30;;;10.10;99.90;;;;;;4998126;28;20029;-85
2023/10/04 08:19:54;;;;;;;38.45;15.30;;;10.20;99.90;;;;;;4998359;28;20029;-85
2023/10/04 08:22:21;;;;;;;32.42;14.27;;;10.30;99.90;;;;;;5014623;28;20033;-85
2023/10/04 08:24:54;;;;;;;34.22;13.38;;;10.30;99.90;;;;;;4998012;28;20065;-85
2023/10/04 08:27:19;;;;;;;34.83;14.52;;;10.40;99.90;;;;;;4998318;28;20037;-85
2023/10/04 08:29:45;;;;;;;24.02;12.60;;;10.60;99.90;;;;;;4997907;28;20034;-85
2023/10/04 08:32:11;;;;;;;24.48;11.75;;;10.70;99.90;;;;;;4997765;28;20038;-85
2023/10/04 08:34:37;;;;;;;34.40;11.98;;;10.70;99.90;;;;;;4997805;28;20080;-85
2023/10/04 08:37:03;;;;;;;20.35;9.50;;;10.70;99.90;;;;;;4997383;28;20056;-85
2023/10/04 08:39:29;;;;;;;26.25;10.02;;;10.60;99.90;;;;;;4997422;28;20113;-85
2023/10/04 08:45:46;;;;;;;30.67;10.38;;;10.70;99.90;;;;;;5016349;28;20040;-84
2023/10/04 08:48:12;;;;;;;26.00;9.65;;;10.80;99.90;;;;;;4997458;28;20033;-85
2023/10/04 08:51:17;;;;;;;27.02;9.85;;;10.90;99.90;;;;;;4997185;28;20034;-85
2023/10/04 08:53:56;;;;;;;24.35;8.48;;;10.90;99.90;;;;;;4997453;28;20037;-85
2023/10/04 08:56:23;;;;;;;25.15;9.27;;;11.00;99.90;;;;;;4998157;28;20030;-85
2023/10/04 08:58:50;;;;;;;15.23;6.55;;;11.40;99.90;;;;;;4997681;28;20569;-85
2023/10/04 09:01:19;;;;;;;14.57;7.25;;;11.70;99.90;;;;;;4998039;28;20120;-85
2023/10/04 09:03:47;;;;;;;15.20;6.10;;;12.20;99.90;;;;;;4997776;28;20033;-85
2023/10/04 09:06:16;;;;;;;15.75;5.80;;;12.10;99.90;;;;;;5014393;28;20044;-86
2023/10/04 09:08:44;;;;;;;13.15;5.20;;;12.40;99.90;;;;;;4997729;28;20491;-85
2023/10/04 09:11:15;;;;;;;14.48;4.93;;;12.20;99.90;;;;;;4996937;28;20060;-86
2023/10/04 09:13:47;;;;;;;14.65;4.38;;;12.00;99.90;;;;;;4997373;28;20034;-86
2023/10/04 09:16:24;;;;;;;16.30;4.93;;;11.60;99.90;;;;;;4997293;28;20044;-85
2023/10/04 09:19:18;;;;;;;19.20;3.97;;;11.80;99.90;;;;;;4997569;28;20026;-86
2023/10/04 09:21:51;;;;;;;13.10;3.95;;;11.70;99.90;;;;;;4997660;28;20040;-85
2023/10/04 09:24:16;;;;;;;9.75;3.63;;;11.70;99.90;;;;;;4997776;28;20052;-85
2023/10/04 09:26:54;;;;;;;9.13;3.47;;;11.80;99.90;;;;;;5015153;28;20030;-85
2023/10/04 09:29:30;;;;;;;9.50;3.80;;;12.20;99.90;;;;;;4997032;28;20072;-85
2023/10/04 09:31:56;;;;;;;7.78;2.90;;;12.80;99.90;;;;;;4997380;28;20136;-85
2023/10/04 09:34:25;;;;;;;10.50;3.10;;;13.30;99.90;;;;;;4997528;28;20084;-85
2023/10/04 09:36:52;;;;;;;8.90;2.88;;;13.60;99.90;;;;;;4997819;28;20568;-86
2023/10/04 09:39:23;;;;;;;6.95;2.88;;;14.20;99.90;;;;;;4997205;28;20029;-85
2023/10/04 09:41:51;;;;;;;13.55;3.10;;;14.60;99.90;;;;;;4997240;28;20045;-86
2023/10/04 09:44:20;;;;;;;5.10;2.15;;;14.70;99.90;;;;;;4997172;28;20029;-86
2023/10/04 09:46:54;;;;;;;9.27;2.67;;;14.70;99.90;;;;;;4997136;28;20041;-86
2023/10/04 09:49:21;;;;;;;5.82;2.38;;;14.60;99.90;;;;;;5013566;28;20200;-86
2023/10/04 09:51:49;;;;;;;14.77;2.78;;;15.10;99.90;;;;;;5013567;28;20065;-85
2023/10/04 09:54:16;;;;;;;13.55;3.30;;;15.00;99.90;;;;;;5014769;28;20022;-86
2023/10/04 09:56:44;;;;;;;13.35;2.42;;;15.10;99.90;;;;;;4997416;28;20394;-86
2023/10/04 09:59:20;;;;;;;9.18;3.03;;;15.30;99.90;;;;;;4996872;28;20112;-86
2023/10/04 10:01:55;;;;;;;10.80;2.75;;;15.50;99.90;;;;;;5012852;28;20044;-85
2023/10/04 10:04:26;;;;;;;8.35;2.63;;;15.50;99.90;;;;;;4996546;28;20124;-83
2023/10/04 10:07:16;;;;;;;9.75;2.15;;;16.00;99.90;;;;;;4996443;28;20181;-86
2023/10/04 10:09:57;;;;;;;4.57;2.10;;;16.40;99.90;;;;;;4996808;28;20044;-85
2023/10/04 10:12:23;;;;;;;8.75;2.22;;;15.90;99.90;;;;;;4996740;28;20437;-85
2023/10/04 10:14:49;;;;;;;6.95;1.70;;;15.30;99.90;;;;;;5012784;28;20137;-84
2023/10/04 10:17:19;;;;;;;5.85;1.83;;;15.20;99.90;;;;;;4996553;28;20503;-84
2023/10/04 10:19:46;;;;;;;8.93;2.35;;;15.40;99.90;;;;;;4996245;28;20036;-84
2023/10/04 10:22:15;;;;;;;6.68;1.98;;;15.50;99.90;;;;;;5012139;28;20061;-84
2023/10/04 10:24:48;;;;;;;7.30;1.92;;;15.00;99.90;;;;;;4996011;28;20411;-84
2023/10/04 10:27:19;;;;;;;9.02;2.17;;;14.50;99.90;;;;;;4996138;28;20038;-85
2023/10/04 10:29:47;;;;;;;5.60;2.63;;;14.00;99.90;;;;;;4996186;28;20746;-84
2023/10/04 10:32:14;;;;;;;8.80;1.88;;;13.50;99.90;;;;;;5012258;28;20403;-84
2023/10/04 10:34:42;;;;;;;9.43;3.00;;;13.40;99.90;;;;;;5014235;28;20500;-84
2023/10/04 10:37:17;;;;;;;13.35;3.33;;;13.40;99.90;;;;;;4995940;28;20490;-84
2023/10/04 10:39:48;;;;;;;5.78;1.88;;;13.30;99.90;;;;;;4996342;28;20045;-83
2023/10/04 10:42:14;;;;;;;10.40;2.30;;;13.50;99.90;;;;;;4996062;28;20026;-85
2023/10/04 10:44:41;;;;;;;5.80;2.05;;;13.80;99.90;;;;;;4996226;28;20394;-84
2023/10/04 10:47:35;;;;;;;8.80;2.13;;;14.20;99.90;;;;;;4995781;28;20042;-84
2023/10/04 10:50:04;;;;;;;9.38;2.42;;;15.20;99.90;;;;;;4971541;28;20489;-84
2023/10/04 10:52:39;;;;;;;8.38;2.00;;;15.50;99.90;;;;;;4995827;28;20030;-85
2023/10/04 10:55:16;;;;;;;5.80;2.17;;;15.10;99.90;;;;;;4996107;28;20034;-85
2023/10/04 10:57:48;;;;;;;8.68;2.40;;;14.70;99.90;;;;;;4996021;28;20100;-85
2023/10/04 11:02:40;;;;;;;9.57;2.45;;;14.40;99.90;;;;;;5013647;28;20061;-84
2023/10/04 11:05:22;;;;;;;7.63;2.33;;;14.80;99.90;;;;;;4995743;28;20077;-85
2023/10/04 11:07:49;;;;;;;5.90;2.88;;;15.00;99.90;;;;;;4996031;28;20375;-85
2023/10/04 11:10:16;;;;;;;5.30;1.92;;;15.40;99.90;;;;;;5012061;28;20499;-85
2023/10/04 11:12:46;;;;;;;9.68;2.65;;;15.70;99.90;;;;;;4995238;28;20068;-84
2023/10/04 11:15:12;;;;;;;4.45;2.20;;;15.60;99.90;;;;;;4996181;28;20618;-84
2023/10/04 11:17:39;;;;;;;7.25;2.08;;;16.40;99.90;;;;;;4995573;28;20385;-84
2023/10/04 11:20:09;;;;;;;11.45;2.08;;;16.90;99.90;;;;;;4995683;28;20061;-85
2023/10/04 11:22:36;;;;;;;6.18;2.13;;;17.00;99.90;;;;;;4995161;28;20045;-85
2023/10/04 11:25:02;;;;;;;4.60;2.17;;;17.00;99.90;;;;;;4995394;28;20073;-84
2023/10/04 11:27:28;;;;;;;7.07;2.25;;;16.70;99.90;;;;;;4995436;28;20124;-84
2023/10/04 11:29:55;;;;;;;6.63;2.10;;;17.40;99.90;;;;;;4995631;28;20092;-85
2023/10/04 11:32:21;;;;;;;7.53;2.55;;;17.50;99.90;;;;;;4994917;28;20065;-84
2023/10/04 11:34:47;;;;;;;8.05;1.73;;;16.90;99.90;;;;;;4997900;28;20116;-84
2023/10/04 11:37:15;;;;;;;4.10;1.70;;;16.80;99.90;;;;;;4999412;28;20062;-84
2023/10/04 11:39:44;;;;;;;7.70;2.35;;;16.60;99.90;;;;;;5016942;28;20052;-84
2023/10/04 11:42:19;;;;;;;7.18;2.15;;;15.90;99.90;;;;;;4999327;28;20084;-84
2023/10/04 11:44:46;;;;;;;6.35;2.22;;;15.20;99.90;;;;;;5015634;28;20034;-84
2023/10/04 11:47:15;;;;;;;5.43;1.85;;;15.10;99.90;;;;;;4999359;28;20034;-84
2023/10/04 11:49:58;;;;;;;6.20;2.10;;;14.70;99.90;;;;;;4999027;28;20041;-84
2023/10/04 11:52:29;;;;;;;4.65;2.10;;;14.40;99.90;;;;;;5014831;28;20048;-84
2023/10/04 11:54:55;;;;;;;11.43;2.15;;;14.30;99.90;;;;;;4998551;28;20034;-84
2023/10/04 11:57:26;;;;;;;7.20;2.00;;;14.20;99.90;;;;;;4998464;28;20049;-85
2023/10/04 11:59:52;;;;;;;7.35;2.33;;;14.90;99.90;;;;;;4998584;28;20026;-84
2023/10/04 12:02:22;;;;;;;9.27;2.35;;;15.70;99.90;;;;;;4998353;28;20049;-85
2023/10/04 12:04:48;;;;;;;7.05;2.10;;;16.20;99.90;;;;;;5016318;28;20033;-84
2023/10/04 12:07:14;;;;;;;7.30;2.35;;;17.00;99.90;;;;;;4998429;28;20073;-85
2023/10/04 12:09:40;;;;;;;7.68;2.70;;;17.50;99.90;;;;;;4998772;28;20034;-84
2023/10/04 12:12:06;;;;;;;8.10;2.83;;;17.70;99.90;;;;;;4998857;28;20069;-84
2023/10/04 12:14:32;;;;;;;6.03;2.47;;;18.00;99.90;;;;;;4998715;28;20022;-85
2023/10/04 12:17:02;;;;;;;6.82;2.50;;;18.40;99.90;;;;;;5015224;28;20034;-85
2023/10/04 12:19:30;;;;;;;8.23;2.63;;;18.50;99.90;;;;;;4999289;28;20034;-85
2023/10/04 12:21:57;;;;;;;8.20;2.67;;;18.30;99.90;;;;;;4998521;28;20045;-84
2023/10/04 12:24:22;;;;;;;7.97;2.50;;;17.70;99.90;;;;;;4998710;28;20041;-84
2023/10/04 12:26:48;;;;;;;12.30;2.72;;;17.00;99.90;;;;;;4998523;28;20025;-84
2023/10/04 12:29:14;;;;;;;13.02;3.03;;;16.50;99.90;;;;;;4998506;28;20030;-84
2023/10/04 12:31:39;;;;;;;8.90;3.20;;;16.00;99.90;;;;;;4998374;28;20061;-85
2023/10/04 12:34:05;;;;;;;10.93;2.83;;;15.90;99.90;;;;;;4998333;28;20032;-84
2023/10/04 12:36:31;;;;;;;10.30;3.42;;;16.00;99.90;;;;;;4998112;28;20026;-84
2023/10/04 12:38:57;;;;;;;14.20;5.50;;;15.80;99.90;;;;;;5015494;28;20144;-84
2023/10/04 12:41:22;;;;;;;10.80;3.53;;;15.60;99.90;;;;;;4997752;28;20120;-84
2023/10/04 12:43:48;;;;;;;6.45;2.78;;;15.60;99.90;;;;;;4997869;28;20456;-84
2023/10/04 12:46:14;;;;;;;8.80;2.35;;;15.60;99.90;;;;;;4997642;28;20477;-84
2023/10/04 12:48:39;;;;;;;10.77;3.08;;;15.70;99.90;;;;;;5014408;28;20061;-84
2023/10/04 12:51:05;;;;;;;11.02;3.00;;;15.80;99.90;;;;;;4998304;28;20390;-84
2023/10/04 12:53:31;;;;;;;10.25;3.38;;;15.80;99.90;;;;;;4998215;28;20034;-84
2023/10/04 12:55:57;;;;;;;8.27;2.95;;;15.80;99.90;;;;;;4997470;28;20112;-85
2023/10/04 12:58:23;;;;;;;7.07;3.35;;;16.10;99.90;;;;;;4997750;28;20073;-84
2023/10/04 13:00:50;;;;;;;11.88;4.07;;;16.70;99.90;;;;;;4996985;28;20029;-84
2023/10/04 13:03:17;;;;;;;8.45;3.97;;;16.60;99.90;;;;;;4996856;28;20038;-81